sensor_id;sensor_type;location;lat;lon;timestamp;pressure;altitude;pressure_sealevel;temperature;humidity
163;BME280;3946;48.958;8.284;2023-04-30T00:02:07;100819.09;;;11.95;100.00
163;BME280;3946;48.958;8.284;2023-04-30T00:04:52;100822.13;;;11.73;100.00
163;BME280;3946;48.958;8.284;2023-04-30T00:07:39;100824.28;;;11.95;100.00
163;BME280;3946;48.958;8.284;2023-04-30T00:10:26;100826.50;;;12.01;100.00
163;BME280;3946;48.958;8.284;2023-04-30T00:13:11;100826.78;;;11.97;100.00
163;BME280;3946;48.958;8.284;2023-04-30T00:15:57;100822.53;;;11.81;100.00
163;BME280;3946;48.958;8.284;2023-04-30T00:18:41;100822.53;;;11.81;100.00
163;BME280;3946;48.958;8.284;2023-04-30T00:21:27;100821.31;;;11.87;100.00
163;BME280;3946;48.958;8.284;2023-04-30T00:24:11;100821.59;;;11.97;100.00
163;BME280;3946;48.958;8.284;2023-04-30T00:26:58;100820.28;;;11.89;100.00
163;BME280;3946;48.958;8.284;2023-04-30T00:29:43;100832.75;;;11.84;100.00
163;BME280;3946;48.958;8.284;2023-04-30T00:32:28;100831.78;;;11.85;100.00
163;BME280;3946;48.958;8.284;2023-04-30T00:35:15;100818.63;;;11.88;100.00
163;BME280;3946;48.958;8.284;2023-04-30T00:38:01;100821.06;;;11.77;100.00
163;BME280;3946;48.958;8.284;2023-04-30T00:40:46;100822.63;;;11.80;100.00
163;BME280;3946;48.958;8.284;2023-04-30T00:43:32;100813.50;;;11.73;100.00
163;BME280;3946;48.958;8.284;2023-04-30T00:46:20;100809.22;;;11.72;100.00
163;BME280;3946;48.958;8.284;2023-04-30T00:49:05;100809.44;;;11.69;100.00
163;BME280;3946;48.958;8.284;2023-04-30T00:51:50;100806.63;;;11.72;100.00
163;BME280;3946;48.958;8.284;2023-04-30T00:54:35;100815.25;;;11.72;100.00
163;BME280;3946;48.958;8.284;2023-04-30T00:57:20;100816.78;;;11.76;100.00
163;BME280;3946;48.958;8.284;2023-04-30T01:00:08;100819.53;;;11.73;100.00
163;BME280;3946;48.958;8.284;2023-04-30T01:02:56;100808.16;;;11.76;100.00
163;BME280;3946;48.958;8.284;2023-04-30T01:05:41;100807.88;;;11.66;100.00
163;BME280;3946;48.958;8.284;2023-04-30T01:08:27;100808.50;;;11.70;100.00
163;BME280;3946;48.958;8.284;2023-04-30T01:11:15;100805.19;;;11.68;100.00
163;BME280;3946;48.958;8.284;2023-04-30T01:14:03;100802.38;;;11.71;100.00
163;BME280;3946;48.958;8.284;2023-04-30T01:16:53;100805.91;;;11.70;100.00
163;BME280;3946;48.958;8.284;2023-04-30T01:19:44;100799.34;;;11.78;100.00
163;BME280;3946;48.958;8.284;2023-04-30T01:22:31;100795.50;;;11.70;100.00
163;BME280;3946;48.958;8.284;2023-04-30T01:28:24;100798.69;;;11.61;100.00
163;BME280;3946;48.958;8.284;2023-04-30T01:31:13;100792.38;;;11.65;100.00
163;BME280;3946;48.958;8.284;2023-04-30T01:34:01;100790.44;;;11.68;100.00
163;BME280;3946;48.958;8.284;2023-04-30T01:36:49;100794.31;;;11.61;100.00
163;BME280;3946;48.958;8.284;2023-04-30T01:39:56;100792.91;;;11.70;100.00
163;BME280;3946;48.958;8.284;2023-04-30T01:42:48;100794.25;;;11.63;100.00
163;BME280;3946;48.958;8.284;2023-04-30T01:45:42;100788.78;;;11.67;100.00
163;BME280;3946;48.958;8.284;2023-04-30T01:48:32;100786.38;;;11.78;100.00
163;BME280;3946;48.958;8.284;2023-04-30T01:51:24;100781.91;;;11.66;100.00
163;BME280;3946;48.958;8.284;2023-04-30T01:54:16;100785.63;;;11.76;99.93
163;BME280;3946;48.958;8.284;2023-04-30T01:57:10;100793.47;;;11.75;100.00
163;BME280;3946;48.958;8.284;2023-04-30T01:59:59;100792.38;;;11.65;100.00
163;BME280;3946;48.958;8.284;2023-04-30T02:02:52;100793.41;;;11.76;99.72
163;BME280;3946;48.958;8.284;2023-04-30T02:05:37;100789.41;;;11.71;100.00
163;BME280;3946;48.958;8.284;2023-04-30T02:08:23;100786.19;;;11.81;100.00
163;BME280;3946;48.958;8.284;2023-04-30T02:11:11;100789.31;;;11.72;99.55
163;BME280;3946;48.958;8.284;2023-04-30T02:13:56;100788.97;;;11.78;99.74
163;BME280;3946;48.958;8.284;2023-04-30T02:16:41;100790.22;;;11.71;99.64
163;BME280;3946;48.958;8.284;2023-04-30T02:19:27;100791.81;;;11.74;99.31
163;BME280;3946;48.958;8.284;2023-04-30T02:22:15;100793.88;;;11.69;99.30
163;BME280;3946;48.958;8.284;2023-04-30T02:25:00;100794.91;;;11.80;98.97
163;BME280;3946;48.958;8.284;2023-04-30T02:27:45;100796.00;;;11.76;99.04
163;BME280;3946;48.958;8.284;2023-04-30T02:30:35;100796.75;;;11.78;98.57
163;BME280;3946;48.958;8.284;2023-04-30T02:33:20;100794.16;;;11.78;98.77
163;BME280;3946;48.958;8.284;2023-04-30T02:36:06;100803.31;;;11.70;99.02
163;BME280;3946;48.958;8.284;2023-04-30T02:38:52;100804.97;;;11.71;99.05
163;BME280;3946;48.958;8.284;2023-04-30T02:41:39;100801.22;;;11.76;99.13
163;BME280;3946;48.958;8.284;2023-04-30T02:44:28;100794.06;;;11.80;98.64
163;BME280;3946;48.958;8.284;2023-04-30T02:47:13;100791.81;;;11.74;98.71
163;BME280;3946;48.958;8.284;2023-04-30T02:49:57;100788.78;;;11.67;99.00
163;BME280;3946;48.958;8.284;2023-04-30T02:52:44;100786.81;;;11.71;98.90
163;BME280;3946;48.958;8.284;2023-04-30T02:55:30;100785.97;;;11.70;98.98
163;BME280;3946;48.958;8.284;2023-04-30T02:58:15;100786.72;;;11.72;98.83
163;BME280;3946;48.958;8.284;2023-04-30T03:01:00;100783.59;;;11.67;98.82
163;BME280;3946;48.958;8.284;2023-04-30T03:03:45;100782.66;;;11.68;98.86
163;BME280;3946;48.958;8.284;2023-04-30T03:06:30;100778.66;;;11.63;99.35
163;BME280;3946;48.958;8.284;2023-04-30T03:09:17;100783.03;;;11.62;99.11
163;BME280;3946;48.958;8.284;2023-04-30T03:12:02;100784.03;;;11.60;99.74
163;BME280;3946;48.958;8.284;2023-04-30T03:14:47;100789.97;;;11.62;99.37
163;BME280;3946;48.958;8.284;2023-04-30T03:17:33;100786.16;;;11.53;99.54
163;BME280;3946;48.958;8.284;2023-04-30T03:20:18;100783.56;;;11.53;99.43
163;BME280;3946;48.958;8.284;2023-04-30T03:23:03;100784.41;;;11.53;99.45
163;BME280;3946;48.958;8.284;2023-04-30T03:25:49;100771.25;;;11.56;99.31
163;BME280;3946;48.958;8.284;2023-04-30T03:28:34;100785.97;;;11.56;99.50
163;BME280;3946;48.958;8.284;2023-04-30T03:31:19;100781.72;;;11.55;98.86
163;BME280;3946;48.958;8.284;2023-04-30T03:34:04;100782.53;;;11.55;98.91
163;BME280;3946;48.958;8.284;2023-04-30T03:36:49;100775.25;;;11.48;99.39
163;BME280;3946;48.958;8.284;2023-04-30T03:39:34;100776.59;;;11.53;99.28
163;BME280;3946;48.958;8.284;2023-04-30T03:42:20;100769.22;;;11.47;99.15
163;BME280;3946;48.958;8.284;2023-04-30T03:45:06;100779.13;;;11.41;98.77
163;BME280;3946;48.958;8.284;2023-04-30T03:47:51;100769.41;;;11.44;98.80
163;BME280;3946;48.958;8.284;2023-04-30T03:50:36;100772.34;;;11.38;99.11
163;BME280;3946;48.958;8.284;2023-04-30T03:53:21;100774.41;;;11.33;99.47
163;BME280;3946;48.958;8.284;2023-04-30T03:56:08;100776.81;;;11.36;99.36
163;BME280;3946;48.958;8.284;2023-04-30T03:58:55;100776.59;;;11.25;99.39
163;BME280;3946;48.958;8.284;2023-04-30T04:01:40;100775.94;;;11.21;99.72
163;BME280;3946;48.958;8.284;2023-04-30T04:04:25;100774.03;;;11.25;99.75
163;BME280;3946;48.958;8.284;2023-04-30T04:07:10;100776.59;;;11.11;100.00
163;BME280;3946;48.958;8.284;2023-04-30T04:09:55;100775.13;;;11.21;99.95
163;BME280;3946;48.958;8.284;2023-04-30T04:12:42;100781.13;;;11.21;100.00
163;BME280;3946;48.958;8.284;2023-04-30T04:15:28;100785.69;;;11.18;99.74
163;BME280;3946;48.958;8.284;2023-04-30T04:18:13;100784.38;;;11.11;100.00
163;BME280;3946;48.958;8.284;2023-04-30T04:20:58;100791.06;;;11.15;99.85
163;BME280;3946;48.958;8.284;2023-04-30T04:23:44;100790.22;;;11.14;100.00
163;BME280;3946;48.958;8.284;2023-04-30T04:26:30;100786.25;;;11.23;99.69
163;BME280;3946;48.958;8.284;2023-04-30T04:29:15;100790.31;;;11.13;99.51
163;BME280;3946;48.958;8.284;2023-04-30T04:32:02;100793.56;;;11.16;99.78
163;BME280;3946;48.958;8.284;2023-04-30T04:34:49;100793.66;;;11.15;99.72
163;BME280;3946;48.958;8.284;2023-04-30T04:37:37;100794.94;;;11.08;99.81
163;BME280;3946;48.958;8.284;2023-04-30T04:40:22;100789.00;;;11.06;100.00
163;BME280;3946;48.958;8.284;2023-04-30T04:43:07;100787.38;;;11.19;99.35
163;BME280;3946;48.958;8.284;2023-04-30T04:45:52;100793.66;;;11.15;99.68
163;BME280;3946;48.958;8.284;2023-04-30T04:48:39;100794.09;;;11.21;99.43
163;BME280;3946;48.958;8.284;2023-04-30T04:51:24;100798.47;;;11.21;99.45
163;BME280;3946;48.958;8.284;2023-04-30T04:54:10;100754.56;;;11.04;99.29
163;BME280;3946;48.958;8.284;2023-04-30T04:56:55;100796.69;;;11.21;99.14
163;BME280;3946;48.958;8.284;2023-04-30T04:59:41;100796.84;;;11.34;98.77
163;BME280;3946;48.958;8.284;2023-04-30T05:02:26;100797.84;;;11.32;98.17
163;BME280;3946;48.958;8.284;2023-04-30T05:05:14;100801.19;;;11.48;97.31
163;BME280;3946;48.958;8.284;2023-04-30T05:07:59;100803.53;;;11.52;96.83
163;BME280;3946;48.958;8.284;2023-04-30T05:10:44;100798.94;;;11.56;96.45
163;BME280;3946;48.958;8.284;2023-04-30T05:13:30;100804.31;;;11.53;96.29
163;BME280;3946;48.958;8.284;2023-04-30T05:16:15;100799.69;;;11.58;96.05
163;BME280;3946;48.958;8.284;2023-04-30T05:19:00;100805.19;;;11.68;95.61
163;BME280;3946;48.958;8.284;2023-04-30T05:21:46;100801.53;;;11.70;94.75
163;BME280;3946;48.958;8.284;2023-04-30T05:24:31;100798.75;;;11.73;94.04
163;BME280;3946;48.958;8.284;2023-04-30T05:27:16;100799.34;;;11.93;93.00
163;BME280;3946;48.958;8.284;2023-04-30T05:30:02;100804.97;;;12.13;92.24
163;BME280;3946;48.958;8.284;2023-04-30T05:32:47;100803.47;;;12.36;90.78
163;BME280;3946;48.958;8.284;2023-04-30T05:35:34;100795.09;;;12.85;88.31
163;BME280;3946;48.958;8.284;2023-04-30T05:38:21;100795.66;;;13.03;86.19
163;BME280;3946;48.958;8.284;2023-04-30T05:41:06;100792.09;;;13.30;85.56
163;BME280;3946;48.958;8.284;2023-04-30T05:43:51;100774.22;;;14.12;82.57
163;BME280;3946;48.958;8.284;2023-04-30T05:46:36;100761.34;;;14.69;79.58
163;BME280;3946;48.958;8.284;2023-04-30T05:49:21;100735.44;;;15.12;76.56
163;BME280;3946;48.958;8.284;2023-04-30T05:52:06;100771.00;;;14.32;78.47
163;BME280;3946;48.958;8.284;2023-04-30T05:54:52;100759.00;;;14.29;78.95
163;BME280;3946;48.958;8.284;2023-04-30T05:57:37;100789.16;;;13.97;80.35
163;BME280;3946;48.958;8.284;2023-04-30T06:00:22;100770.44;;;14.16;80.04
163;BME280;3946;48.958;8.284;2023-04-30T06:03:07;100772.88;;;14.30;78.89
163;BME280;3946;48.958;8.284;2023-04-30T06:05:52;100798.69;;;13.73;80.59
163;BME280;3946;48.958;8.284;2023-04-30T06:08:38;100803.50;;;13.53;82.30
163;BME280;3946;48.958;8.284;2023-04-30T06:11:26;100798.63;;;13.61;82.80
163;BME280;3946;48.958;8.284;2023-04-30T06:14:11;100796.13;;;13.60;82.16
163;BME280;3946;48.958;8.284;2023-04-30T06:16:56;100798.72;;;13.35;81.93
163;BME280;3946;48.958;8.284;2023-04-30T06:19:41;100796.75;;;13.51;82.31
163;BME280;3946;48.958;8.284;2023-04-30T06:22:26;100785.19;;;13.55;81.30
163;BME280;3946;48.958;8.284;2023-04-30T06:25:11;100789.28;;;13.83;81.57
163;BME280;3946;48.958;8.284;2023-04-30T06:27:57;100778.09;;;14.06;80.43
163;BME280;3946;48.958;8.284;2023-04-30T06:30:42;100779.69;;;14.20;79.86
163;BME280;3946;48.958;8.284;2023-04-30T06:33:28;100769.03;;;13.99;79.73
163;BME280;3946;48.958;8.284;2023-04-30T06:36:13;100772.81;;;14.19;79.54
163;BME280;3946;48.958;8.284;2023-04-30T06:38:57;100766.63;;;14.09;79.22
163;BME280;3946;48.958;8.284;2023-04-30T06:41:43;100773.69;;;14.43;79.18
163;BME280;3946;48.958;8.284;2023-04-30T06:44:32;100748.59;;;14.29;77.36
163;BME280;3946;48.958;8.284;2023-04-30T06:47:17;100773.25;;;14.13;78.59
163;BME280;3946;48.958;8.284;2023-04-30T06:50:02;100773.16;;;14.14;78.39
163;BME280;3946;48.958;8.284;2023-04-30T06:52:47;100778.47;;;14.13;79.04
163;BME280;3946;48.958;8.284;2023-04-30T06:55:32;100771.25;;;14.16;78.51
163;BME280;3946;48.958;8.284;2023-04-30T06:58:17;100779.84;;;14.29;78.73
163;BME280;3946;48.958;8.284;2023-04-30T07:01:04;100776.09;;;14.33;78.24
163;BME280;3946;48.958;8.284;2023-04-30T07:03:49;100761.94;;;14.73;76.83
163;BME280;3946;48.958;8.284;2023-04-30T07:06:35;100748.94;;;14.95;75.42
163;BME280;3946;48.958;8.284;2023-04-30T07:09:20;100749.69;;;14.62;75.95
163;BME280;3946;48.958;8.284;2023-04-30T07:12:05;100757.47;;;14.75;76.23
163;BME280;3946;48.958;8.284;2023-04-30T07:14:50;100762.31;;;14.79;75.66
163;BME280;3946;48.958;8.284;2023-04-30T07:17:36;100761.09;;;14.61;75.49
163;BME280;3946;48.958;8.284;2023-04-30T07:20:21;100735.25;;;14.69;74.88
163;BME280;3946;48.958;8.284;2023-04-30T07:23:07;100741.22;;;14.82;75.62
163;BME280;3946;48.958;8.284;2023-04-30T07:25:55;100742.94;;;15.05;74.79
163;BME280;3946;48.958;8.284;2023-04-30T07:28:40;100728.81;;;15.19;74.03
163;BME280;3946;48.958;8.284;2023-04-30T07:31:25;100721.81;;;15.64;73.15
163;BME280;3946;48.958;8.284;2023-04-30T07:34:11;100707.56;;;15.46;72.48
163;BME280;3946;48.958;8.284;2023-04-30T07:36:56;100721.19;;;15.83;72.43
163;BME280;3946;48.958;8.284;2023-04-30T07:39:41;100698.22;;;15.98;71.37
163;BME280;3946;48.958;8.284;2023-04-30T07:42:26;100699.22;;;15.86;71.30
163;BME280;3946;48.958;8.284;2023-04-30T07:45:11;100708.50;;;15.45;71.46
163;BME280;3946;48.958;8.284;2023-04-30T07:47:56;100717.78;;;15.49;71.52
163;BME280;3946;48.958;8.284;2023-04-30T07:50:42;100744.59;;;15.07;73.30
163;BME280;3946;48.958;8.284;2023-04-30T07:53:31;100735.44;;;14.90;73.60
163;BME280;3946;48.958;8.284;2023-04-30T07:56:15;100739.56;;;14.46;74.29
163;BME280;3946;48.958;8.284;2023-04-30T07:59:00;100737.97;;;14.56;73.77
163;BME280;3946;48.958;8.284;2023-04-30T08:01:45;100738.81;;;14.68;74.50
163;BME280;3946;48.958;8.284;2023-04-30T08:04:31;100706.75;;;15.23;72.56
163;BME280;3946;48.958;8.284;2023-04-30T08:07:17;100699.25;;;15.63;71.15
163;BME280;3946;48.958;8.284;2023-04-30T08:10:04;100703.34;;;15.99;70.17
163;BME280;3946;48.958;8.284;2023-04-30T08:12:49;100670.84;;;16.13;68.65
163;BME280;3946;48.958;8.284;2023-04-30T08:15:35;100678.31;;;16.18;68.42
163;BME280;3946;48.958;8.284;2023-04-30T08:18:21;100662.66;;;16.38;67.52
163;BME280;3946;48.958;8.284;2023-04-30T08:21:06;100653.84;;;16.19;67.21
163;BME280;3946;48.958;8.284;2023-04-30T08:23:52;100668.75;;;15.64;67.50
163;BME280;3946;48.958;8.284;2023-04-30T08:26:37;100708.56;;;15.56;69.46
163;BME280;3946;48.958;8.284;2023-04-30T08:29:21;100696.41;;;15.44;68.92
163;BME280;3946;48.958;8.284;2023-04-30T08:32:06;100686.09;;;15.54;68.79
163;BME280;3946;48.958;8.284;2023-04-30T08:34:51;100697.63;;;15.94;69.31
163;BME280;3946;48.958;8.284;2023-04-30T08:37:37;100682.63;;;16.39;68.28
163;BME280;3946;48.958;8.284;2023-04-30T08:40:23;100630.50;;;16.27;66.14
163;BME280;3946;48.958;8.284;2023-04-30T08:43:09;100623.88;;;16.23;65.63
163;BME280;3946;48.958;8.284;2023-04-30T08:45:54;100648.16;;;16.34;66.02
163;BME280;3946;48.958;8.284;2023-04-30T08:48:39;100655.75;;;16.37;66.24
163;BME280;3946;48.958;8.284;2023-04-30T08:51:25;100623.03;;;16.43;64.73
163;BME280;3946;48.958;8.284;2023-04-30T08:54:11;100638.03;;;16.20;65.23
163;BME280;3946;48.958;8.284;2023-04-30T08:56:57;100611.66;;;16.12;64.25
163;BME280;3946;48.958;8.284;2023-04-30T08:59:43;100610.47;;;16.16;64.23
163;BME280;3946;48.958;8.284;2023-04-30T09:02:30;100600.72;;;16.18;63.47
163;BME280;3946;48.958;8.284;2023-04-30T09:05:15;100602.34;;;15.98;63.01
163;BME280;3946;48.958;8.284;2023-04-30T09:08:00;100614.22;;;16.02;63.39
163;BME280;3946;48.958;8.284;2023-04-30T09:10:45;100609.69;;;16.25;63.11
163;BME280;3946;48.958;8.284;2023-04-30T09:13:40;100604.00;;;16.83;62.58
163;BME280;3946;48.958;8.284;2023-04-30T09:16:25;100588.78;;;17.66;61.69
163;BME280;3946;48.958;8.284;2023-04-30T09:19:22;100531.53;;;17.81;59.43
163;BME280;3946;48.958;8.284;2023-04-30T09:22:17;100601.22;;;17.24;62.22
163;BME280;3946;48.958;8.284;2023-04-30T09:25:02;100632.91;;;17.21;63.28
163;BME280;3946;48.958;8.284;2023-04-30T09:27:48;100617.38;;;17.29;62.86
163;BME280;3946;48.958;8.284;2023-04-30T09:30:34;100597.25;;;16.90;61.80
163;BME280;3946;48.958;8.284;2023-04-30T09:33:19;100597.72;;;16.64;61.86
163;BME280;3946;48.958;8.284;2023-04-30T09:36:07;100629.22;;;16.63;62.28
163;BME280;3946;48.958;8.284;2023-04-30T09:38:53;100631.69;;;16.43;62.65
163;BME280;3946;48.958;8.284;2023-04-30T09:41:38;100663.22;;;16.42;64.11
163;BME280;3946;48.958;8.284;2023-04-30T09:44:26;100619.78;;;16.71;62.86
163;BME280;3946;48.958;8.284;2023-04-30T09:47:14;100588.63;;;16.99;61.67
163;BME280;3946;48.958;8.284;2023-04-30T09:49:59;100617.44;;;17.08;62.49
163;BME280;3946;48.958;8.284;2023-04-30T09:52:46;100589.63;;;16.77;61.32
163;BME280;3946;48.958;8.284;2023-04-30T09:55:32;100605.81;;;16.92;61.84
163;BME280;3946;48.958;8.284;2023-04-30T09:58:18;100597.44;;;17.07;61.31
163;BME280;3946;48.958;8.284;2023-04-30T10:01:03;100566.25;;;17.54;60.14
163;BME280;3946;48.958;8.284;2023-04-30T10:03:50;100567.25;;;17.82;59.90
163;BME280;3946;48.958;8.284;2023-04-30T10:06:36;100535.09;;;17.90;58.71
163;BME280;3946;48.958;8.284;2023-04-30T10:09:22;100539.53;;;18.36;58.28
163;BME280;3946;48.958;8.284;2023-04-30T10:12:11;100516.66;;;18.18;57.64
163;BME280;3946;48.958;8.284;2023-04-30T10:14:58;100528.25;;;18.26;58.09
163;BME280;3946;48.958;8.284;2023-04-30T10:17:48;100512.19;;;18.01;57.51
163;BME280;3946;48.958;8.284;2023-04-30T10:20:35;100547.53;;;17.78;58.97
163;BME280;3946;48.958;8.284;2023-04-30T10:23:21;100541.44;;;17.87;58.78
163;BME280;3946;48.958;8.284;2023-04-30T10:26:06;100523.97;;;18.25;58.34
163;BME280;3946;48.958;8.284;2023-04-30T10:28:52;100491.81;;;18.23;57.16
163;BME280;3946;48.958;8.284;2023-04-30T10:31:38;100474.69;;;18.28;56.60
163;BME280;3946;48.958;8.284;2023-04-30T10:34:26;100475.84;;;18.16;56.71
163;BME280;3946;48.958;8.284;2023-04-30T10:37:17;100452.75;;;18.19;55.82
163;BME280;3946;48.958;8.284;2023-04-30T10:40:05;100474.56;;;18.20;56.55
163;BME280;3946;48.958;8.284;2023-04-30T10:42:52;100440.88;;;18.25;55.55
163;BME280;3946;48.958;8.284;2023-04-30T10:45:40;100463.63;;;18.34;56.38
163;BME280;3946;48.958;8.284;2023-04-30T10:48:26;100424.13;;;18.63;54.78
163;BME280;3946;48.958;8.284;2023-04-30T10:51:13;100417.16;;;18.44;54.41
163;BME280;3946;48.958;8.284;2023-04-30T10:53:59;100394.13;;;18.38;53.50
163;BME280;3946;48.958;8.284;2023-04-30T10:56:44;100422.50;;;18.52;54.10
163;BME280;3946;48.958;8.284;2023-04-30T10:59:30;100378.75;;;18.26;52.68
163;BME280;3946;48.958;8.284;2023-04-30T11:02:18;100426.72;;;18.08;54.00
163;BME280;3946;48.958;8.284;2023-04-30T11:05:07;100413.41;;;18.19;53.93
163;BME280;3946;48.958;8.284;2023-04-30T11:07:55;100430.66;;;18.22;54.55
163;BME280;3946;48.958;8.284;2023-04-30T11:10:55;100397.97;;;18.71;52.72
163;BME280;3946;48.958;8.284;2023-04-30T11:13:58;100385.91;;;18.51;52.64
163;BME280;3946;48.958;8.284;2023-04-30T11:16:43;100391.56;;;18.01;53.10
163;BME280;3946;48.958;8.284;2023-04-30T11:19:32;100408.72;;;18.50;53.70
163;BME280;3946;48.958;8.284;2023-04-30T11:22:20;100391.75;;;18.72;52.72
163;BME280;3946;48.958;8.284;2023-04-30T11:25:05;100393.19;;;18.67;52.57
163;BME280;3946;48.958;8.284;2023-04-30T11:27:53;100386.91;;;18.68;52.67
163;BME280;3946;48.958;8.284;2023-04-30T11:30:40;100359.41;;;18.90;51.79
163;BME280;3946;48.958;8.284;2023-04-30T11:33:26;100344.34;;;18.92;50.82
163;BME280;3946;48.958;8.284;2023-04-30T11:36:11;100342.84;;;18.71;51.20
163;BME280;3946;48.958;8.284;2023-04-30T11:38:58;100330.88;;;19.12;50.36
163;BME280;3946;48.958;8.284;2023-04-30T11:41:44;100298.13;;;18.45;49.39
163;BME280;3946;48.958;8.284;2023-04-30T11:44:31;100318.09;;;19.17;49.76
163;BME280;3946;48.958;8.284;2023-04-30T11:47:16;100302.56;;;19.84;49.05
163;BME280;3946;48.958;8.284;2023-04-30T11:50:01;100292.13;;;20.16;48.58
163;BME280;3946;48.958;8.284;2023-04-30T11:52:47;100241.66;;;20.13;47.00
163;BME280;3946;48.958;8.284;2023-04-30T11:55:32;100271.66;;;19.78;48.06
163;BME280;3946;48.958;8.284;2023-04-30T11:58:17;100289.88;;;19.45;48.70
163;BME280;3946;48.958;8.284;2023-04-30T12:01:05;100306.78;;;19.43;48.69
163;BME280;3946;48.958;8.284;2023-04-30T12:03:50;100256.16;;;19.41;47.39
163;BME280;3946;48.958;8.284;2023-04-30T12:06:37;100264.72;;;19.43;47.74
163;BME280;3946;48.958;8.284;2023-04-30T12:09:22;100247.47;;;19.48;47.31
163;BME280;3946;48.958;8.284;2023-04-30T12:12:06;100272.34;;;19.54;48.13
163;BME280;3946;48.958;8.284;2023-04-30T12:14:51;100322.44;;;19.27;49.73
163;BME280;3946;48.958;8.284;2023-04-30T12:17:38;100286.53;;;19.09;48.50
163;BME280;3946;48.958;8.284;2023-04-30T12:20:23;100283.38;;;19.06;48.33
163;BME280;3946;48.958;8.284;2023-04-30T12:23:08;100286.50;;;19.35;48.67
163;BME280;3946;48.958;8.284;2023-04-30T12:25:53;100256.09;;;19.25;47.86
163;BME280;3946;48.958;8.284;2023-04-30T12:28:45;100268.34;;;19.42;48.06
163;BME280;3946;48.958;8.284;2023-04-30T12:31:30;100236.19;;;19.48;46.86
163;BME280;3946;48.958;8.284;2023-04-30T12:34:17;100260.34;;;19.51;47.74
163;BME280;3946;48.958;8.284;2023-04-30T12:37:02;100297.50;;;19.05;48.85
163;BME280;3946;48.958;8.284;2023-04-30T12:39:49;100316.66;;;19.23;49.63
163;BME280;3946;48.958;8.284;2023-04-30T12:42:34;100301.25;;;19.02;49.00
163;BME280;3946;48.958;8.284;2023-04-30T12:48:24;100256.69;;;19.18;47.61
163;BME280;3946;48.958;8.284;2023-04-30T12:51:11;100282.56;;;19.31;48.84
163;BME280;3946;48.958;8.284;2023-04-30T12:53:55;100289.31;;;19.60;48.64
163;BME280;3946;48.958;8.284;2023-04-30T12:56:55;100244.03;;;19.74;47.30
163;BME280;3946;48.958;8.284;2023-04-30T12:59:56;100235.94;;;19.67;47.34
163;BME280;3946;48.958;8.284;2023-04-30T13:02:42;100282.25;;;19.60;48.91
163;BME280;3946;48.958;8.284;2023-04-30T13:05:27;100257.22;;;19.90;47.56
163;BME280;3946;48.958;8.284;2023-04-30T13:08:14;100272.88;;;19.66;48.28
163;BME280;3946;48.958;8.284;2023-04-30T13:11:01;100251.69;;;19.33;47.44
163;BME280;3946;48.958;8.284;2023-04-30T13:13:46;100262.19;;;19.59;47.81
163;BME280;3946;48.958;8.284;2023-04-30T13:16:31;100277.50;;;19.64;48.50
163;BME280;3946;48.958;8.284;2023-04-30T13:19:17;100257.88;;;19.50;48.11
163;BME280;3946;48.958;8.284;2023-04-30T13:22:02;100260.41;;;19.68;48.04
163;BME280;3946;48.958;8.284;2023-04-30T13:24:48;100258.75;;;19.59;48.14
163;BME280;3946;48.958;8.284;2023-04-30T13:27:33;100261.03;;;19.28;48.17
163;BME280;3946;48.958;8.284;2023-04-30T13:30:18;100287.72;;;19.49;49.27
163;BME280;3946;48.958;8.284;2023-04-30T13:33:03;100241.50;;;20.31;47.50
163;BME280;3946;48.958;8.284;2023-04-30T13:35:48;100188.84;;;19.98;45.86
163;BME280;3946;48.958;8.284;2023-04-30T13:38:34;100214.13;;;19.75;47.05
163;BME280;3946;48.958;8.284;2023-04-30T13:41:20;100239.53;;;19.32;48.00
163;BME280;3946;48.958;8.284;2023-04-30T13:44:05;100223.34;;;19.11;47.75
163;BME280;3946;48.958;8.284;2023-04-30T13:46:50;100263.91;;;19.16;49.43
163;BME280;3946;48.958;8.284;2023-04-30T13:49:35;100231.28;;;18.93;47.98
163;BME280;3946;48.958;8.284;2023-04-30T13:52:20;100220.66;;;19.29;47.87
163;BME280;3946;48.958;8.284;2023-04-30T13:55:05;100222.00;;;19.07;47.95
163;BME280;3946;48.958;8.284;2023-04-30T13:57:52;100227.56;;;19.04;48.14
163;BME280;3946;48.958;8.284;2023-04-30T14:00:38;100212.84;;;19.11;47.72
163;BME280;3946;48.958;8.284;2023-04-30T14:03:23;100219.75;;;19.20;47.72
163;BME280;3946;48.958;8.284;2023-04-30T14:06:08;100222.50;;;19.10;48.06
163;BME280;3946;48.958;8.284;2023-04-30T14:08:53;100243.22;;;19.13;48.96
163;BME280;3946;48.958;8.284;2023-04-30T14:11:39;100221.63;;;18.76;48.06
163;BME280;3946;48.958;8.284;2023-04-30T14:14:26;100237.97;;;18.70;48.91
163;BME280;3946;48.958;8.284;2023-04-30T14:17:11;100223.84;;;18.88;48.40
163;BME280;3946;48.958;8.284;2023-04-30T14:19:56;100212.00;;;19.10;47.98
163;BME280;3946;48.958;8.284;2023-04-30T14:22:41;100200.72;;;19.18;47.48
163;BME280;3946;48.958;8.284;2023-04-30T14:25:27;100181.38;;;19.61;47.31
163;BME280;3946;48.958;8.284;2023-04-30T14:28:12;100194.84;;;19.58;47.54
163;BME280;3946;48.958;8.284;2023-04-30T14:30:58;100197.53;;;19.40;47.82
163;BME280;3946;48.958;8.284;2023-04-30T14:33:43;100188.47;;;19.01;47.77
163;BME280;3946;48.958;8.284;2023-04-30T14:36:28;100205.63;;;19.13;48.24
163;BME280;3946;48.958;8.284;2023-04-30T14:39:13;100180.88;;;19.23;47.18
163;BME280;3946;48.958;8.284;2023-04-30T14:41:58;100180.22;;;19.21;47.40
163;BME280;3946;48.958;8.284;2023-04-30T14:44:44;100212.75;;;19.29;48.51
163;BME280;3946;48.958;8.284;2023-04-30T14:47:31;100201.59;;;19.35;47.72
163;BME280;3946;48.958;8.284;2023-04-30T14:50:16;100187.78;;;19.67;47.44
163;BME280;3946;48.958;8.284;2023-04-30T14:53:01;100164.34;;;19.39;46.99
163;BME280;3946;48.958;8.284;2023-04-30T14:55:46;100205.47;;;19.14;48.12
163;BME280;3946;48.958;8.284;2023-04-30T14:58:31;100179.91;;;19.33;47.39
163;BME280;3946;48.958;8.284;2023-04-30T15:01:19;100179.44;;;19.71;47.34
163;BME280;3946;48.958;8.284;2023-04-30T15:04:05;100169.91;;;19.70;47.16
163;BME280;3946;48.958;8.284;2023-04-30T15:06:50;100149.50;;;19.56;46.50
163;BME280;3946;48.958;8.284;2023-04-30T15:09:35;100154.31;;;19.77;46.84